Time;durP1;ratioP1;P1;durP2;ratioP2;P2;SDS_P1;SDS_P2;PMS_P1;PMS_P2;Temp;Humidity;BMP_temperature;BMP_pressure;BME280_temperature;BME280_humidity;BME280_pressure;Samples;Min_cycle;Max_cycle;Signal;HPM_P1;HPM_P2
2023/03/17 00:00:34;;;;;;;8.90;7.70;;;;;;;5.99;58.32;96056.94;5029003;28;20410;-69
2023/03/17 00:03:00;;;;;;;10.90;6.77;;;;;;;5.80;59.24;96048.81;5029205;28;20438;-69
2023/03/17 00:05:32;;;;;;;11.27;8.60;;;;;;;5.80;59.29;96064.44;5029024;28;20427;-69
2023/03/17 00:08:09;;;;;;;8.67;7.50;;;;;;;5.90;58.49;96056.28;5029064;28;20418;-69
2023/03/17 00:10:35;;;;;;;9.33;7.33;;;;;;;5.94;58.36;96051.88;5029309;28;20906;-69
2023/03/17 00:13:01;;;;;;;8.03;6.80;;;;;;;5.97;58.37;96051.78;5028967;28;20414;-69
2023/03/17 00:15:27;;;;;;;7.87;7.07;;;;;;;5.90;58.30;96051.06;5028799;28;20524;-69
2023/03/17 00:17:54;;;;;;;9.90;7.63;;;;;;;5.89;58.42;96051.97;5028008;28;20190;-69
2023/03/17 00:20:26;;;;;;;9.83;8.43;;;;;;;5.92;58.34;96054.47;5028613;28;20179;-69
2023/03/17 00:22:58;;;;;;;10.40;7.70;;;;;;;5.99;57.65;96044.75;5028847;28;20414;-69
2023/03/17 00:25:27;;;;;;;8.87;7.30;;;;;;;6.03;57.55;96048.13;5028808;28;20548;-69
2023/03/17 00:27:54;;;;;;;7.60;6.80;;;;;;;5.91;57.86;96051.94;5028480;28;21273;-69
2023/03/17 00:30:21;;;;;;;9.50;7.90;;;;;;;5.85;57.70;96049.53;5028661;28;20454;-69
2023/03/17 00:32:50;;;;;;;9.90;7.50;;;;;;;5.87;57.81;96050.31;5028814;28;20415;-69
2023/03/17 00:35:29;;;;;;;8.87;8.07;;;;;;;5.69;58.19;96049.13;5028437;28;20462;-69
2023/03/17 00:37:56;;;;;;;9.90;7.30;;;;;;;5.14;59.70;96045.56;5028411;28;20418;-69
2023/03/17 00:40:29;;;;;;;9.90;7.57;;;;;;;5.60;58.96;96042.47;5028453;28;20438;-69
2023/03/17 00:42:56;;;;;;;8.83;7.90;;;;;;;5.76;58.01;96034.19;5028139;28;20544;-69
2023/03/17 00:45:24;;;;;;;8.80;7.57;;;;;;;5.78;58.05;96035.00;5028354;28;20441;-69
2023/03/17 00:47:52;;;;;;;8.37;7.57;;;;;;;5.67;58.50;96035.31;5027794;28;20418;-68
2023/03/17 00:50:23;;;;;;;8.97;7.40;;;;;;;5.72;58.22;96029.06;5027955;28;20425;-68
2023/03/17 00:52:50;;;;;;;8.63;7.70;;;;;;;5.73;58.13;96022.09;5027933;28;20406;-68
2023/03/17 00:55:17;;;;;;;10.13;7.53;;;;;;;5.71;58.09;96018.69;5027850;28;20454;-68
2023/03/17 00:57:43;;;;;;;11.13;8.10;;;;;;;5.83;57.81;96014.84;5027802;28;20464;-69
2023/03/17 01:00:28;;;;;;;9.30;7.63;;;;;;;5.50;58.86;96009.78;5028108;28;21117;-68
2023/03/17 01:02:56;;;;;;;8.03;6.93;;;;;;;5.15;60.57;96010.81;5028019;28;20172;-68
2023/03/17 01:05:23;;;;;;;9.10;8.00;;;;;;;5.16;60.63;96016.00;5027834;28;20422;-70
2023/03/17 01:07:52;;;;;;;9.30;7.63;;;;;;;4.93;61.50;96013.19;5027508;28;21280;-69
2023/03/17 01:10:24;;;;;;;9.93;8.13;;;;;;;5.46;59.31;96011.66;5027812;28;20418;-69
2023/03/17 01:12:54;;;;;;;12.50;7.30;;;;;;;5.57;58.90;96006.09;5027754;28;21064;-68
2023/03/17 01:15:21;;;;;;;8.67;7.77;;;;;;;5.39;58.95;95999.72;5027500;28;20473;-68
2023/03/17 01:17:49;;;;;;;9.47;7.87;;;;;;;5.07;60.35;96001.50;5027252;28;20410;-68
2023/03/17 01:20:22;;;;;;;10.67;7.70;;;;;;;4.91;60.67;95992.44;5027715;28;21066;-68
2023/03/17 01:22:49;;;;;;;9.43;8.57;;;;;;;5.07;60.29;95995.44;5027441;28;20414;-68
2023/03/17 01:25:16;;;;;;;11.77;7.90;;;;;;;4.90;60.40;95988.13;5027334;28;20458;-69
2023/03/17 01:27:43;;;;;;;9.47;7.43;;;;;;;4.88;60.31;95993.38;5030882;28;21157;-69
2023/03/17 01:30:27;;;;;;;13.23;8.00;;;;;;;5.33;59.11;95996.44;5028755;28;20472;-68
2023/03/17 01:32:54;;;;;;;10.97;7.73;;;;;;;5.33;58.83;95991.25;5027609;28;20422;-68
2023/03/17 01:35:20;;;;;;;10.60;8.10;;;;;;;5.22;59.10;95984.63;5027143;28;20556;-68
2023/03/17 01:37:47;;;;;;;11.90;8.17;;;;;;;4.99;59.84;95982.69;5026993;28;20474;-68
2023/03/17 01:40:16;;;;;;;10.03;8.30;;;;;;;4.73;60.78;95973.00;5027710;28;20448;-68
2023/03/17 01:42:47;;;;;;;12.67;8.60;;;;;;;5.13;60.03;95973.63;5028112;28;20410;-68
2023/03/17 01:45:50;;;;;;;12.07;8.50;;;;;;;5.25;59.51;95970.66;5027562;28;20438;-69
2023/03/17 01:48:16;;;;;;;9.37;8.43;;;;;;;5.06;59.68;95973.81;5027323;28;20425;-68
2023/03/17 01:50:45;;;;;;;10.20;8.27;;;;;;;4.81;60.22;95963.25;5027032;28;20422;-68
2023/03/17 01:53:12;;;;;;;10.00;7.73;;;;;;;4.94;60.68;95970.69;5027001;28;20419;-68
2023/03/17 01:55:39;;;;;;;9.40;7.63;;;;;;;5.00;60.72;95971.38;5026607;28;20967;-68
2023/03/17 01:58:06;;;;;;;12.90;8.97;;;;;;;4.99;60.75;95966.22;5026697;28;20509;-68
2023/03/17 02:00:32;;;;;;;8.20;7.23;;;;;;;4.95;60.88;95964.59;5026711;28;20414;-68
2023/03/17 02:02:58;;;;;;;13.10;8.10;;;;;;;4.77;61.06;95956.44;5026771;28;20950;-68
2023/03/17 02:05:27;;;;;;;11.67;7.80;;;;;;;5.00;60.47;95953.16;5026677;28;20460;-68
2023/03/17 02:07:54;;;;;;;8.70;7.80;;;;;;;4.81;61.00;95939.84;5027273;28;20195;-69
2023/03/17 02:10:21;;;;;;;10.90;7.53;;;;;;;4.97;60.97;95937.66;5027576;28;20604;-69
2023/03/17 02:12:52;;;;;;;12.37;8.20;;;;;;;4.69;61.28;95937.59;5027498;28;20853;-68
2023/03/17 02:15:17;;;;;;;10.80;7.90;;;;;;;4.82;61.26;95936.38;5027218;28;20497;-70
2023/03/17 02:17:43;;;;;;;8.77;7.10;;;;;;;5.06;60.26;95937.38;5026587;28;20461;-69
2023/03/17 02:20:31;;;;;;;9.73;8.50;;;;;;;5.21;59.49;95936.06;5025228;28;20404;-68
2023/03/17 02:22:58;;;;;;;10.37;7.10;;;;;;;5.30;59.22;95934.94;5026545;28;20175;-70
2023/03/17 02:25:27;;;;;;;11.53;7.83;;;;;;;5.18;59.69;95937.94;5026677;28;21072;-70
2023/03/17 02:28:00;;;;;;;8.30;7.43;;;;;;;4.90;60.24;95943.94;5026213;28;20436;-70
2023/03/17 02:30:27;;;;;;;10.33;7.97;;;;;;;4.96;60.53;95929.88;5026610;28;20940;-68
2023/03/17 02:32:53;;;;;;;8.63;7.67;;;;;;;4.99;60.88;95937.63;5026538;28;20420;-68
2023/03/17 02:35:19;;;;;;;8.27;6.83;;;;;;;4.99;60.56;95942.81;5026465;28;20470;-68
2023/03/17 02:37:54;;;;;;;15.67;7.83;;;;;;;5.18;60.25;95943.13;5026320;28;20180;-69
2023/03/17 02:40:19;;;;;;;10.47;7.20;;;;;;;5.20;60.30;95944.78;5026616;28;20456;-69
2023/03/17 02:42:45;;;;;;;8.70;7.80;;;;;;;5.11;59.79;95933.81;5029748;28;20653;-68
2023/03/17 02:45:12;;;;;;;11.83;8.50;;;;;;;4.98;60.62;95931.53;5030244;28;20199;-68
2023/03/17 02:47:38;;;;;;;9.87;7.90;;;;;;;4.99;60.48;95935.88;5030173;28;20179;-69
2023/03/17 02:50:05;;;;;;;9.43;8.00;;;;;;;5.12;60.16;95931.13;5029972;28;20418;-68
2023/03/17 02:52:31;;;;;;;10.40;8.50;;;;;;;5.15;60.42;95931.06;5030236;28;20180;-68
2023/03/17 02:54:56;;;;;;;7.77;6.97;;;;;;;5.24;59.92;95923.00;5030161;28;20458;-68
2023/03/17 02:57:22;;;;;;;10.03;8.00;;;;;;;5.17;59.91;95925.81;5029851;28;20931;-68
2023/03/17 02:59:48;;;;;;;11.53;8.63;;;;;;;5.22;59.89;95926.50;5030029;28;20286;-69
2023/03/17 03:02:13;;;;;;;9.73;8.70;;;;;;;5.32;59.73;95919.31;5030553;28;20214;-68
2023/03/17 03:04:39;;;;;;;9.00;7.23;;;;;;;5.32;59.65;95927.94;5029910;28;20268;-69
2023/03/17 03:07:04;;;;;;;14.23;7.57;;;;;;;5.25;59.95;95926.44;5029814;28;20672;-69
2023/03/17 03:09:30;;;;;;;11.90;8.43;;;;;;;5.09;60.66;95931.25;5030614;28;20182;-68
2023/03/17 03:11:56;;;;;;;8.40;7.50;;;;;;;5.05;60.50;95921.81;5030279;28;20179;-68
2023/03/17 03:14:22;;;;;;;22.40;10.40;;;;;;;5.15;60.81;95925.88;5029977;28;20207;-68
2023/03/17 03:16:47;;;;;;;8.50;7.40;;;;;;;5.19;60.19;95926.63;5029649;28;20621;-68
2023/03/17 03:19:13;;;;;;;11.80;9.47;;;;;;;5.21;60.14;95941.28;5029770;28;20571;-69
2023/03/17 03:21:38;;;;;;;10.50;8.30;;;;;;;5.25;60.43;95939.44;5029903;28;20632;-68
2023/03/17 03:24:05;;;;;;;11.40;8.80;;;;;;;5.09;60.82;95941.66;5029581;28;20230;-68
2023/03/17 03:26:31;;;;;;;17.77;7.97;;;;;;;4.98;61.37;95948.91;5027624;28;20318;-68
2023/03/17 03:28:57;;;;;;;8.93;8.03;;;;;;;4.93;61.79;95950.78;5029769;28;20417;-68
2023/03/17 03:31:23;;;;;;;18.53;9.90;;;;;;;5.07;61.22;95951.25;5030362;28;20187;-68
2023/03/17 03:33:48;;;;;;;23.97;14.27;;;;;;;5.08;61.06;95953.81;5030453;28;20482;-68
2023/03/17 03:36:14;;;;;;;21.73;15.60;;;;;;;5.09;60.80;95954.66;5030460;28;20199;-68
2023/03/17 03:38:40;;;;;;;27.43;15.27;;;;;;;4.92;60.68;95949.09;5029449;28;20262;-68
2023/03/17 03:41:06;;;;;;;13.20;11.13;;;;;;;4.87;61.39;95954.44;5030720;28;20192;-68
2023/03/17 03:43:31;;;;;;;15.07;11.00;;;;;;;5.03;60.92;95953.09;5031103;28;20437;-69
2023/03/17 03:45:57;;;;;;;14.43;10.80;;;;;;;5.07;60.81;95953.84;5028995;28;20473;-68
2023/03/17 03:48:23;;;;;;;20.67;11.50;;;;;;;5.06;60.77;95946.94;5031503;28;20259;-68
2023/03/17 03:50:49;;;;;;;13.97;9.87;;;;;;;5.14;60.15;95939.75;5029262;28;20245;-68
2023/03/17 03:53:14;;;;;;;12.30;10.10;;;;;;;5.16;60.36;95948.38;5029404;28;20179;-68
2023/03/17 03:55:40;;;;;;;10.50;9.40;;;;;;;5.15;60.86;95949.28;5029012;28;20230;-68
2023/03/17 03:58:06;;;;;;;13.37;10.03;;;;;;;5.07;61.15;95959.03;5029262;28;20654;-68
2023/03/17 04:00:32;;;;;;;13.77;10.30;;;;;;;5.30;60.34;95954.00;5029269;28;20421;-68
2023/03/17 04:02:57;;;;;;;15.53;10.57;;;;;;;5.20;61.17;95941.34;5029180;28;20414;-68
2023/03/17 04:05:23;;;;;;;16.60;10.73;;;;;;;5.06;61.56;95944.34;5029026;28;20251;-68
2023/03/17 04:07:49;;;;;;;12.40;10.43;;;;;;;4.98;61.94;95949.75;5028653;28;20206;-68
2023/03/17 04:10:15;;;;;;;19.90;11.00;;;;;;;4.94;62.06;95952.47;5028989;28;20657;-69
2023/03/17 04:12:41;;;;;;;15.60;10.20;;;;;;;5.00;61.44;95949.72;5029067;28;20417;-68
2023/03/17 04:15:10;;;;;;;12.53;9.77;;;;;;;4.99;61.07;95945.44;5028817;28;20233;-68
2023/03/17 04:17:35;;;;;;;12.53;10.80;;;;;;;5.11;60.60;95949.41;5028977;28;20490;-68
2023/03/17 04:20:02;;;;;;;16.50;12.60;;;;;;;4.80;61.81;95945.09;5028869;28;21011;-68
2023/03/17 04:22:28;;;;;;;48.10;26.67;;;;;;;4.98;61.45;95939.34;5027680;28;20179;-68
2023/03/17 04:24:53;;;;;;;23.70;17.63;;;;;;;4.96;60.72;95935.97;5028635;28;20430;-68
2023/03/17 04:27:19;;;;;;;15.57;11.50;;;;;;;4.87;61.24;95936.22;5028734;28;20234;-68
2023/03/17 04:29:44;;;;;;;14.33;10.87;;;;;;;5.04;60.91;95930.53;5029142;28;20662;-68
2023/03/17 04:32:12;;;;;;;24.23;17.80;;;;;;;4.96;61.54;95937.69;5028815;28;20187;-68
2023/03/17 04:34:38;;;;;;;25.20;17.90;;;;;;;5.07;61.05;95935.63;5028769;28;20298;-69
2023/03/17 04:37:04;;;;;;;32.60;19.50;;;;;;;5.18;60.69;95930.97;5028229;28;20421;-69
2023/03/17 04:39:29;;;;;;;40.40;26.43;;;;;;;5.01;61.18;95926.28;5026935;28;20422;-68
2023/03/17 04:41:55;;;;;;;51.37;31.20;;;;;;;5.05;61.07;95932.22;5028166;28;20175;-68
2023/03/17 04:44:20;;;;;;;44.37;28.60;;;;;;;4.98;60.87;95931.53;5028294;28;20218;-68
2023/03/17 04:46:46;;;;;;;64.87;41.40;;;;;;;5.01;60.80;95933.22;5027835;28;20195;-68
2023/03/17 04:49:11;;;;;;;55.93;41.17;;;;;;;4.59;61.50;95934.41;5028223;28;20198;-68
2023/03/17 04:51:37;;;;;;;59.73;41.97;;;;;;;4.80;60.77;95932.09;5028143;28;20179;-68
2023/03/17 04:54:03;;;;;;;63.13;42.50;;;;;;;4.81;61.13;95934.66;5028085;28;20268;-69
2023/03/17 04:56:29;;;;;;;55.17;39.73;;;;;;;4.76;60.82;95928.72;5027782;28;20179;-68
2023/03/17 04:58:54;;;;;;;67.27;44.43;;;;;;;4.87;61.33;95931.88;5027900;28;20418;-68
2023/03/17 05:01:20;;;;;;;95.73;55.83;;;;;;;4.66;61.89;95927.31;5027912;28;20171;-68
2023/03/17 05:03:46;;;;;;;92.80;58.77;;;;;;;4.77;62.06;95935.66;5027805;28;20266;-68
2023/03/17 05:06:12;;;;;;;82.13;57.03;;;;;;;4.72;61.22;95929.69;5027016;28;20631;-68
2023/03/17 05:08:37;;;;;;;85.33;63.47;;;;;;;4.81;61.10;95934.66;5027931;28;20191;-67
2023/03/17 05:11:03;;;;;;;102.40;64.33;;;;;;;4.97;61.34;95934.22;5027701;28;20305;-68
2023/03/17 05:13:29;;;;;;;77.83;54.03;;;;;;;4.70;61.62;95936.72;5027894;28;20183;-68
2023/03/17 05:15:55;;;;;;;70.50;46.80;;;;;;;4.76;61.56;95935.69;5027574;28;20195;-68
2023/03/17 05:18:23;;;;;;;53.00;36.13;;;;;;;4.82;61.35;95923.38;5027380;28;20171;-68
2023/03/17 05:20:48;;;;;;;62.53;44.53;;;;;;;4.89;61.25;95924.03;5027424;28;20472;-69
2023/03/17 05:23:14;;;;;;;63.73;44.17;;;;;;;4.82;61.77;95923.38;5027320;28;20514;-68
2023/03/17 05:25:40;;;;;;;66.93;43.60;;;;;;;4.90;61.14;95925.72;5027276;28;20194;-68
2023/03/17 05:28:06;;;;;;;65.93;47.63;;;;;;;4.88;61.66;95917.13;5027210;28;20183;-68
2023/03/17 05:30:32;;;;;;;74.73;48.80;;;;;;;4.94;61.24;95918.69;5027154;28;20418;-68
2023/03/17 05:32:58;;;;;;;76.90;51.53;;;;;;;4.80;62.41;95909.56;5027243;28;20406;-68
2023/03/17 05:35:24;;;;;;;64.77;46.27;;;;;;;4.53;62.99;95910.34;5027345;28;20211;-68
2023/03/17 05:37:49;;;;;;;44.60;31.90;;;;;;;4.21;64.41;95907.72;5027073;28;20503;-68
2023/03/17 05:40:15;;;;;;;24.47;18.20;;;;;;;4.29;64.03;95912.72;5027229;28;20422;-69
2023/03/17 05:42:41;;;;;;;32.33;22.07;;;;;;;4.54;63.49;95912.06;5027446;28;20763;-69
2023/03/17 05:45:08;;;;;;;27.40;20.77;;;;;;;4.78;62.73;95908.75;5022186;28;20211;-68
2023/03/17 05:47:35;;;;;;;25.20;19.57;;;;;;;5.02;61.47;95904.56;5014487;28;20369;-69
2023/03/17 05:50:00;;;;;;;25.60;14.93;;;;;;;5.15;60.53;95907.66;5015880;28;21073;-68
2023/03/17 05:52:27;;;;;;;18.70;12.50;;;;;;;5.39;59.56;95895.63;5027107;28;20421;-69
2023/03/17 05:54:53;;;;;;;19.10;12.10;;;;;;;5.28;59.77;95895.97;5025900;28;20454;-69
2023/03/17 05:57:19;;;;;;;11.90;10.70;;;;;;;5.13;60.16;95906.00;5026501;28;20417;-69
2023/03/17 05:59:45;;;;;;;13.20;10.30;;;;;;;5.27;59.75;95909.03;5027162;28;20469;-68
2023/03/17 06:02:10;;;;;;;15.50;10.80;;;;;;;5.09;59.83;95903.47;5027106;28;20410;-69
2023/03/17 06:04:37;;;;;;;23.17;10.10;;;;;;;5.20;59.97;95908.38;5026906;28;20742;-69
2023/03/17 06:07:03;;;;;;;11.00;9.30;;;;;;;5.37;59.12;95907.00;5026675;28;20180;-69
2023/03/17 06:09:29;;;;;;;15.53;10.00;;;;;;;5.79;57.90;95902.16;5026973;28;20438;-70
2023/03/17 06:11:55;;;;;;;10.70;9.60;;;;;;;6.06;56.90;95894.34;5028064;28;20414;-68
2023/03/17 06:14:20;;;;;;;10.27;9.07;;;;;;;6.49;55.76;95896.28;5029817;28;20468;-67
2023/03/17 06:16:46;;;;;;;10.33;9.13;;;;;;;7.05;53.94;95891.66;5025867;28;20230;-68
2023/03/17 06:19:11;;;;;;;9.30;8.10;;;;;;;7.31;52.67;95890.66;5025406;28;20317;-68
2023/03/17 06:21:37;;;;;;;10.27;9.23;;;;;;;7.99;51.25;95889.59;5024982;28;20552;-69
2023/03/17 06:24:02;;;;;;;10.13;7.93;;;;;;;8.67;49.70;95898.03;5024122;28;21031;-69
2023/03/17 06:26:28;;;;;;;13.23;11.00;;;;;;;8.60;49.08;95903.63;5024185;28;20225;-69
2023/03/17 06:28:53;;;;;;;12.40;10.27;;;;;;;8.90;48.48;95904.00;5020677;28;20194;-69
2023/03/17 06:31:19;;;;;;;15.07;10.10;;;;;;;9.32;48.03;95916.88;5021053;28;20186;-69
2023/03/17 06:33:44;;;;;;;16.70;11.30;;;;;;;10.01;45.83;95907.47;5022522;28;20187;-69
2023/03/17 06:36:10;;;;;;;35.37;13.47;;;;;;;11.06;43.18;95900.38;5020595;28;20213;-70
2023/03/17 06:38:36;;;;;;;28.13;13.27;;;;;;;12.16;40.11;95895.97;5026935;28;20186;-69
2023/03/17 06:41:02;;;;;;;19.03;14.00;;;;;;;12.03;39.93;95892.38;5027448;28;20253;-68
2023/03/17 06:43:27;;;;;;;19.03;16.83;;;;;;;11.37;41.27;95881.16;5022370;28;20182;-68
2023/03/17 06:45:53;;;;;;;31.10;20.10;;;;;;;11.83;39.38;95882.97;5020817;28;20831;-68
2023/03/17 06:48:18;;;;;;;37.23;26.60;;;;;;;12.95;37.82;95872.88;5020646;28;20294;-68
2023/03/17 06:50:46;;;;;;;19.73;15.07;;;;;;;13.22;37.16;95865.88;5036146;28;20762;-69
2023/03/17 06:53:12;;;;;;;20.53;15.07;;;;;;;12.57;37.69;95868.19;5024084;28;20175;-68
2023/03/17 06:55:37;;;;;;;17.57;11.37;;;;;;;13.62;36.59;95873.06;5024400;28;20474;-68
2023/03/17 06:58:03;;;;;;;12.40;10.20;;;;;;;13.05;36.53;95881.91;5019735;28;20436;-69
2023/03/17 07:00:29;;;;;;;11.13;9.97;;;;;;;13.00;36.52;95882.19;5023448;28;20179;-68
2023/03/17 07:02:55;;;;;;;23.60;10.87;;;;;;;12.53;38.16;95900.88;5022715;28;20186;-68
2023/03/17 07:05:21;;;;;;;12.60;9.60;;;;;;;12.44;37.60;95897.84;5022976;28;20253;-68
2023/03/17 07:07:48;;;;;;;13.30;11.80;;;;;;;13.07;37.17;95896.66;5023368;28;20718;-68
2023/03/17 07:10:14;;;;;;;15.03;10.20;;;;;;;13.81;35.68;95901.75;5023903;28;20432;-68
2023/03/17 07:12:41;;;;;;;12.57;10.03;;;;;;;13.83;35.65;95911.25;5023913;28;20414;-68
2023/03/17 07:15:08;;;;;;;25.00;11.57;;;;;;;14.07;35.48;95906.16;5022230;28;20520;-68
2023/03/17 07:17:34;;;;;;;10.97;9.80;;;;;;;14.34;34.48;95906.13;5023005;28;20498;-68
2023/03/17 07:19:59;;;;;;;14.30;11.20;;;;;;;14.58;34.32;95897.53;5023234;28;20483;-69
2023/03/17 07:22:25;;;;;;;11.50;10.40;;;;;;;12.91;36.94;95914.34;5023678;28;20292;-68
2023/03/17 07:24:51;;;;;;;14.53;11.97;;;;;;;12.24;38.73;95914.81;5022333;28;20253;-68
2023/03/17 07:27:17;;;;;;;13.43;11.67;;;;;;;13.17;37.27;95915.38;5023991;28;20410;-68
2023/03/17 07:29:42;;;;;;;33.13;13.73;;;;;;;12.47;38.62;95909.97;5027039;28;20255;-68
2023/03/17 07:32:09;;;;;;;16.07;12.83;;;;;;;12.77;37.65;95903.81;5022273;28;20581;-69
2023/03/17 07:34:35;;;;;;;12.40;11.20;;;;;;;12.73;37.92;95900.50;5026625;28;20286;-68
2023/03/17 07:37:01;;;;;;;12.00;10.80;;;;;;;12.89;37.37;95901.25;5026465;28;20472;-68
2023/03/17 07:39:27;;;;;;;15.60;11.33;;;;;;;12.06;39.17;95900.94;5025324;28;20459;-69
2023/03/17 07:41:54;;;;;;;20.07;10.83;;;;;;;12.91;37.53;95909.94;5026686;28;20418;-71
2023/03/17 07:44:23;;;;;;;17.90;10.77;;;;;;;13.43;36.67;95905.03;5026352;28;20199;-70
2023/03/17 07:46:52;;;;;;;16.93;12.10;;;;;;;13.26;37.39;95908.72;5025577;28;20429;-68
2023/03/17 07:49:19;;;;;;;11.60;10.40;;;;;;;12.69;38.97;95899.00;5025993;28;20520;-69
2023/03/17 07:51:44;;;;;;;12.17;10.87;;;;;;;11.74;40.16;95902.75;5026993;28;20414;-70
2023/03/17 07:54:11;;;;;;;12.40;11.10;;;;;;;12.45;38.89;95896.06;5027809;28;20516;-69
2023/03/17 07:56:37;;;;;;;10.90;9.80;;;;;;;12.58;38.52;95901.44;5028023;28;20171;-70
2023/03/17 07:59:03;;;;;;;11.43;10.43;;;;;;;11.93;39.60;95899.09;5028638;28;20421;-69
2023/03/17 08:01:29;;;;;;;12.23;10.33;;;;;;;12.06;39.74;95900.09;5028700;28;20414;-69
2023/03/17 08:03:55;;;;;;;9.87;8.97;;;;;;;12.55;38.90;95899.84;5025899;28;20495;-71
2023/03/17 08:06:24;;;;;;;14.20;12.20;;;;;;;12.10;39.42;95893.72;5030592;28;20178;-68
2023/03/17 08:08:50;;;;;;;12.40;11.13;;;;;;;12.40;39.01;95893.72;5024344;28;20203;-68
2023/03/17 08:11:16;;;;;;;12.87;11.50;;;;;;;12.14;40.58;95889.97;5024077;28;20768;-71
2023/03/17 08:13:42;;;;;;;12.13;11.03;;;;;;;12.81;38.28;95898.28;5019432;28;20415;-70
2023/03/17 08:16:07;;;;;;;13.43;11.97;;;;;;;12.66;38.82;95896.53;5006702;28;20530;-69
2023/03/17 08:18:33;;;;;;;18.77;16.83;;;;;;;11.22;42.16;95892.50;5009472;28;20172;-70
2023/03/17 08:20:58;;;;;;;14.53;13.03;;;;;;;11.50;42.25;95893.59;5008923;28;20174;-70
2023/03/17 08:23:24;;;;;;;14.13;12.77;;;;;;;11.94;40.68;95891.13;5009155;28;20168;-69
2023/03/17 08:25:55;;;;;;;14.33;11.87;;;;;;;12.54;40.08;95894.66;5012981;28;20196;-71
2023/03/17 08:28:21;;;;;;;13.38;11.90;;;;;;;12.70;39.35;95892.81;5010788;28;20994;-69
2023/03/17 08:30:47;;;;;;;14.23;11.50;;;;;;;12.35;40.57;95893.09;5026970;28;20467;-69
2023/03/17 08:33:13;;;;;;;12.00;10.70;;;;;;;12.57;39.79;95897.13;5024091;28;20439;-69
2023/03/17 08:35:42;;;;;;;15.53;10.73;;;;;;;13.47;38.34;95888.09;5026064;28;20306;-69
2023/03/17 08:38:08;;;;;;;15.50;11.57;;;;;;;13.18;38.34;95884.59;5027049;28;20453;-69
2023/03/17 08:40:35;;;;;;;12.90;11.57;;;;;;;12.81;39.63;95885.09;5026825;28;20174;-70
2023/03/17 08:43:01;;;;;;;14.83;13.33;;;;;;;11.67;42.34;95888.25;5027852;28;20437;-69
2023/03/17 08:45:27;;;;;;;26.77;16.70;;;;;;;11.28;43.17;95883.44;5027142;28;21288;-69
2023/03/17 08:47:53;;;;;;;20.27;18.07;;;;;;;12.18;41.87;95891.47;5027327;28;20431;-70
2023/03/17 08:50:22;;;;;;;22.50;20.13;;;;;;;11.79;42.21;95891.97;5029179;28;20313;-69
2023/03/17 08:52:48;;;;;;;34.40;21.20;;;;;;;12.23;41.31;95881.53;5025090;28;20811;-68
2023/03/17 08:55:15;;;;;;;24.07;20.27;;;;;;;12.34;40.59;95886.16;5030835;28;20462;-68
2023/03/17 08:57:43;;;;;;;23.67;19.70;;;;;;;11.88;41.76;95880.94;5027108;28;20446;-69
2023/03/17 09:00:10;;;;;;;20.07;17.70;;;;;;;12.16;42.01;95884.63;5032509;28;20414;-69
2023/03/17 09:02:37;;;;;;;29.87;21.90;;;;;;;12.17;42.12;95878.44;5025481;28;21036;-69
2023/03/17 09:05:04;;;;;;;23.43;20.50;;;;;;;12.63;40.31;95875.69;5026211;28;20469;-70
2023/03/17 09:07:30;;;;;;;27.70;21.57;;;;;;;13.05;40.16;95874.84;5026555;28;20411;-70
2023/03/17 09:09:55;;;;;;;27.30;24.40;;;;;;;12.80;40.15;95878.13;5027027;28;20440;-69
2023/03/17 09:12:21;;;;;;;27.30;24.60;;;;;;;12.09;41.58;95873.59;5033677;28;20175;-69
2023/03/17 09:14:47;;;;;;;22.33;19.90;;;;;;;12.75;40.61;95867.03;5026982;28;20202;-70
2023/03/17 09:17:14;;;;;;;25.90;21.43;;;;;;;12.69;40.40;95864.78;5025621;28;20190;-70
2023/03/17 09:19:40;;;;;;;29.70;21.40;;;;;;;12.58;40.64;95864.59;5027251;28;20833;-70
2023/03/17 09:22:06;;;;;;;25.60;21.23;;;;;;;12.71;41.43;95868.19;5026017;28;20422;-70
2023/03/17 09:24:32;;;;;;;26.07;19.83;;;;;;;14.17;38.20;95872.09;5031311;28;20454;-69
2023/03/17 09:26:58;;;;;;;21.43;17.20;;;;;;;12.58;40.90;95869.84;5025753;28;20442;-70
2023/03/17 09:29:25;;;;;;;19.97;17.63;;;;;;;12.40;40.81;95872.66;5030608;28;20179;-70
2023/03/17 09:31:51;;;;;;;13.30;11.17;;;;;;;11.62;43.03;95864.88;5026219;28;20478;-72
2023/03/17 09:34:17;;;;;;;13.30;11.90;;;;;;;12.49;41.05;95874.72;5026687;28;21046;-69
2023/03/17 09:36:42;;;;;;;11.37;10.27;;;;;;;12.71;41.40;95865.56;5027057;28;20425;-70
2023/03/17 09:39:08;;;;;;;14.87;10.80;;;;;;;13.32;39.84;95850.34;5027838;28;20977;-70
2023/03/17 09:41:48;;;;;;;24.77;11.60;;;;;;;13.48;39.35;95850.22;5027501;28;20265;-70
2023/03/17 09:44:18;;;;;;;13.53;11.70;;;;;;;13.47;39.69;95848.56;5027144;28;20229;-70
2023/03/17 09:47:16;;;;;;;18.80;10.60;;;;;;;12.76;42.14;95852.09;5026725;28;20430;-70
2023/03/17 09:49:47;;;;;;;9.90;9.00;;;;;;;12.45;42.01;95848.72;5007595;28;20485;-70
2023/03/17 09:52:17;;;;;;;17.60;9.87;;;;;;;11.92;42.54;95855.34;5007663;28;20411;-69
2023/03/17 09:54:48;;;;;;;12.50;9.40;;;;;;;12.12;42.41;95855.03;5007466;28;20467;-69
2023/03/17 09:57:18;;;;;;;9.67;8.73;;;;;;;12.15;41.93;95851.38;5007211;28;20439;-70
2023/03/17 09:59:48;;;;;;;11.27;9.20;;;;;;;12.40;41.12;95843.72;5016401;28;20840;-71
2023/03/17 10:02:28;;;;;;;10.20;9.13;;;;;;;13.42;40.03;95840.09;5027239;28;20432;-70
2023/03/17 10:04:53;;;;;;;11.00;10.00;;;;;;;13.50;39.19;95836.00;5027536;28;20430;-68
2023/03/17 10:07:27;;;;;;;16.93;9.83;;;;;;;13.98;38.68;95827.63;5026940;28;21013;-69
2023/03/17 10:10:04;;;;;;;11.37;10.33;;;;;;;14.32;37.77;95841.19;5025638;28;20172;-70
2023/03/17 10:12:48;;;;;;;17.13;9.83;;;;;;;14.56;37.69;95831.63;5027289;28;20409;-70
2023/03/17 10:15:31;;;;;;;9.80;8.80;;;;;;;14.83;37.00;95828.00;5027287;28;20489;-69
2023/03/17 10:17:57;;;;;;;16.00;9.57;;;;;;;15.28;36.65;95819.59;5026752;28;20414;-70
2023/03/17 10:20:35;;;;;;;13.67;9.63;;;;;;;14.97;36.65;95819.97;5024135;28;20446;-70
2023/03/17 10:23:05;;;;;;;18.63;10.03;;;;;;;14.62;37.90;95817.16;5026747;28;20536;-70
2023/03/17 10:25:35;;;;;;;10.27;9.10;;;;;;;14.47;37.91;95816.38;5026572;28;20422;-70
2023/03/17 10:28:07;;;;;;;13.57;11.63;;;;;;;14.57;38.15;95820.13;5022216;28;20542;-68
2023/03/17 10:30:34;;;;;;;9.97;8.97;;;;;;;15.02;37.37;95823.16;5026290;28;20422;-68
2023/03/17 10:33:02;;;;;;;10.03;9.03;;;;;;;14.46;38.18;95825.28;5025937;28;20446;-68
2023/03/17 10:35:34;;;;;;;11.37;9.73;;;;;;;13.61;40.61;95821.31;5026189;28;20505;-68
2023/03/17 10:38:00;;;;;;;11.33;9.67;;;;;;;14.45;39.23;95822.72;5025022;28;20434;-68
2023/03/17 10:40:29;;;;;;;10.83;8.77;;;;;;;14.01;39.71;95823.91;5025865;28;20433;-68
2023/03/17 10:43:04;;;;;;;13.60;10.30;;;;;;;14.16;39.32;95828.19;5029252;28;20206;-68
2023/03/17 10:45:33;;;;;;;11.17;9.83;;;;;;;14.64;38.74;95825.81;5026348;28;20469;-68
2023/03/17 10:48:03;;;;;;;11.43;10.23;;;;;;;14.98;37.39;95813.75;5027640;28;20440;-71
2023/03/17 10:50:33;;;;;;;12.50;10.10;;;;;;;15.14;37.28;95810.84;5024727;28;20427;-69
2023/03/17 10:53:07;;;;;;;11.90;10.70;;;;;;;14.79;37.78;95810.72;5025769;28;20417;-70
2023/03/17 10:55:37;;;;;;;11.53;10.47;;;;;;;14.80;38.24;95813.22;5025304;28;20481;-67
2023/03/17 10:58:14;;;;;;;12.20;9.20;;;;;;;14.79;38.13;95805.44;5024498;28;20437;-68
2023/03/17 11:00:58;;;;;;;16.63;10.17;;;;;;;14.98;37.95;95802.34;5025215;28;20421;-68
2023/03/17 11:03:30;;;;;;;10.07;8.97;;;;;;;15.42;36.16;95796.47;5030577;28;20931;-69
2023/03/17 11:06:02;;;;;;;12.03;8.70;;;;;;;15.83;35.60;95805.84;5028692;28;20418;-69
2023/03/17 11:08:44;;;;;;;10.17;9.00;;;;;;;15.86;35.27;95802.13;5036215;28;20918;-69
2023/03/17 11:11:32;;;;;;;9.13;8.07;;;;;;;15.79;35.79;95808.84;5029339;28;20464;-69
2023/03/17 11:14:12;;;;;;;12.23;9.30;;;;;;;15.29;36.84;95794.84;5029700;28;20414;-69
2023/03/17 11:16:44;;;;;;;14.07;9.87;;;;;;;15.28;36.83;95793.97;5035540;28;20607;-68
2023/03/17 11:19:15;;;;;;;12.60;8.90;;;;;;;15.32;36.73;95787.53;5031311;28;20434;-69
2023/03/17 11:22:06;;;;;;;9.90;8.90;;;;;;;15.20;36.03;95785.78;5029928;28;20407;-68
2023/03/17 11:24:40;;;;;;;10.53;8.20;;;;;;;15.36;35.16;95781.06;5030049;28;20430;-69
2023/03/17 11:27:38;;;;;;;20.17;8.77;;;;;;;15.25;35.15;95773.91;5026790;28;20973;-70
2023/03/17 11:30:10;;;;;;;123.20;22.67;;;;;;;15.60;34.04;95764.34;5020625;28;20422;-68